Time;durP1;ratioP1;P1;durP2;ratioP2;P2;SDS_P1;SDS_P2;PMS_P1;PMS_P2;Temp;Humidity;BMP_temperature;BMP_pressure;BME280_temperature;BME280_humidity;BME280_pressure;Samples;Min_cycle;Max_cycle;Signal;HPM_P1;HPM_P2
2021/10/29 00:01:15;;;;;;;15.52;11.52;;;;;;;9.50;86.22;101185.16;10245813;28;20470;-67
2021/10/29 00:06:11;;;;;;;17.33;10.93;;;;;;;9.48;86.80;101186.25;10257044;28;20053;-67
2021/10/29 00:11:08;;;;;;;12.55;10.32;;;;;;;9.55;86.70;101179.59;10247542;28;20137;-67
2021/10/29 00:16:05;;;;;;;15.30;9.80;;;;;;;9.56;87.02;101182.06;10247826;28;20063;-67
2021/10/29 00:21:01;;;;;;;13.70;10.70;;;;;;;9.54;86.76;101172.50;10258883;28;20053;-67
2021/10/29 00:25:59;;;;;;;15.93;10.57;;;;;;;9.48;86.95;101178.06;10237088;28;20045;-67
2021/10/29 00:30:55;;;;;;;16.83;9.38;;;;;;;9.48;86.54;101175.34;10247034;28;20075;-67
2021/10/29 00:35:53;;;;;;;14.32;9.43;;;;;;;9.44;86.88;101178.97;10246070;28;20042;-67
2021/10/29 00:40:50;;;;;;;14.50;9.75;;;;;;;9.41;87.09;101180.38;10250284;28;20095;-67
2021/10/29 00:45:48;;;;;;;16.30;8.98;;;;;;;9.35;87.13;101187.03;10263139;28;20449;-68
2021/10/29 00:50:46;;;;;;;13.38;10.27;;;;;;;9.35;87.02;101187.03;10254727;28;20068;-68
2021/10/29 00:55:42;;;;;;;15.35;10.65;;;;;;;9.30;87.07;101184.38;10259242;28;20045;-68
2021/10/29 01:00:39;;;;;;;16.02;11.02;;;;;;;9.28;87.16;101186.59;10249757;28;20095;-68
2021/10/29 01:05:36;;;;;;;14.68;8.82;;;;;;;9.18;87.20;101184.84;10252968;28;20092;-68
2021/10/29 01:10:32;;;;;;;14.52;10.05;;;;;;;9.16;87.22;101183.50;10230943;28;20495;-68
2021/10/29 01:15:29;;;;;;;14.90;10.75;;;;;;;9.16;86.86;101186.25;10257758;28;20132;-68
2021/10/29 01:20:26;;;;;;;15.05;10.52;;;;;;;9.13;87.55;101189.56;10249109;28;20048;-68
2021/10/29 01:25:23;;;;;;;13.85;10.18;;;;;;;9.12;87.49;101182.47;10254159;28;20391;-67
2021/10/29 01:30:19;;;;;;;15.90;11.00;;;;;;;9.10;86.98;101185.53;10252747;28;20120;-67
2021/10/29 01:35:16;;;;;;;15.43;10.93;;;;;;;9.05;86.37;101175.50;10244277;28;20135;-67
2021/10/29 01:40:14;;;;;;;17.83;11.25;;;;;;;9.00;87.30;101175.56;10256064;28;20050;-68
2021/10/29 01:45:11;;;;;;;18.55;12.30;;;;;;;8.96;87.72;101180.00;10255305;28;20087;-68
2021/10/29 01:50:09;;;;;;;17.73;12.52;;;;;;;8.94;87.15;101182.22;10252615;28;20072;-68
2021/10/29 01:55:06;;;;;;;17.73;11.70;;;;;;;8.91;87.01;101171.91;10257057;28;20045;-67
2021/10/29 02:00:06;;;;;;;16.38;12.05;;;;;;;8.85;87.21;101164.88;10252575;28;20423;-67
2021/10/29 02:05:03;;;;;;;16.33;11.55;;;;;;;8.82;87.56;101168.22;10253238;28;20053;-67
2021/10/29 02:10:00;;;;;;;17.40;11.75;;;;;;;8.80;87.59;101165.78;10254854;28;20079;-67
2021/10/29 02:14:57;;;;;;;17.95;12.65;;;;;;;8.74;87.59;101160.69;10243232;28;20057;-67
2021/10/29 02:19:53;;;;;;;16.80;11.52;;;;;;;8.70;87.43;101154.19;10222935;28;20062;-68
2021/10/29 02:24:50;;;;;;;16.48;11.75;;;;;;;8.68;87.22;101148.22;10224175;28;20519;-68
2021/10/29 02:29:46;;;;;;;17.48;11.85;;;;;;;8.61;87.13;101135.78;10248490;28;20049;-68
2021/10/29 02:34:42;;;;;;;20.30;12.95;;;;;;;8.57;87.46;101123.84;10251453;28;20103;-68
2021/10/29 02:39:39;;;;;;;18.05;13.43;;;;;;;8.52;87.90;101126.66;10241387;28;20415;-68
2021/10/29 02:44:36;;;;;;;19.60;13.73;;;;;;;8.43;87.33;101134.66;10246910;28;20045;-68
2021/10/29 02:49:32;;;;;;;21.23;13.98;;;;;;;8.38;87.62;101125.72;10235421;28;20069;-68
2021/10/29 02:54:29;;;;;;;19.33;14.23;;;;;;;8.27;87.83;101116.06;10255792;28;20041;-68
2021/10/29 02:59:25;;;;;;;19.38;14.85;;;;;;;8.32;87.92;101110.53;10249926;28;20045;-66
2021/10/29 03:04:22;;;;;;;25.58;17.70;;;;;;;8.30;87.70;101107.28;10240189;28;20048;-66
2021/10/29 03:09:18;;;;;;;24.27;15.23;;;;;;;8.27;87.78;101107.88;10246754;28;20140;-67
2021/10/29 03:14:15;;;;;;;23.00;16.20;;;;;;;8.25;87.64;101104.66;10255076;28;20083;-68
2021/10/29 03:19:12;;;;;;;23.30;15.48;;;;;;;8.19;87.35;101095.72;10251263;28;20072;-67
2021/10/29 03:24:08;;;;;;;21.42;15.73;;;;;;;8.17;87.37;101093.31;10250547;28;20044;-68
2021/10/29 03:29:04;;;;;;;24.58;17.00;;;;;;;8.12;87.47;101090.66;10227559;28;20071;-68
2021/10/29 03:34:01;;;;;;;27.00;18.08;;;;;;;7.99;87.84;101096.81;10234214;28;20065;-70
2021/10/29 03:39:04;;;;;;;30.80;17.77;;;;;;;7.93;87.74;101095.22;10234746;28;20041;-71
2021/10/29 03:44:21;;;;;;;25.95;18.15;;;;;;;7.92;88.19;101104.50;10228728;28;20474;-72
2021/10/29 03:49:27;;;;;;;26.55;17.80;;;;;;;7.96;88.36;101097.34;10220923;28;20037;-69
2021/10/29 03:54:30;;;;;;;29.08;18.67;;;;;;;7.91;88.11;101098.22;10213576;28;20049;-71
2021/10/29 03:59:28;;;;;;;25.27;17.95;;;;;;;7.91;87.93;101097.41;10241634;28;20037;-73
2021/10/29 04:04:24;;;;;;;25.02;17.92;;;;;;;7.92;87.97;101088.16;10251912;28;20045;-73
2021/10/29 04:09:21;;;;;;;23.77;17.30;;;;;;;7.90;87.54;101093.09;10238583;28;20132;-71
2021/10/29 04:14:22;;;;;;;27.75;19.08;;;;;;;7.88;88.37;101089.84;10241379;28;20087;-74
2021/10/29 04:19:18;;;;;;;30.52;20.73;;;;;;;7.86;88.10;101089.31;10244187;28;20076;-74
2021/10/29 04:24:15;;;;;;;26.98;19.02;;;;;;;7.84;87.19;101095.06;10248384;28;20087;-74
2021/10/29 04:29:16;;;;;;;28.58;19.35;;;;;;;7.79;87.82;101087.75;10250159;28;20111;-75
2021/10/29 04:34:14;;;;;;;29.73;20.23;;;;;;;7.75;88.19;101086.72;10233870;28;20050;-74
2021/10/29 04:39:13;;;;;;;30.40;20.00;;;;;;;7.60;88.24;101097.78;10242924;28;20102;-71
2021/10/29 04:44:10;;;;;;;28.20;20.55;;;;;;;7.64;88.10;101090.66;10244222;28;20474;-73
2021/10/29 04:49:07;;;;;;;32.33;21.15;;;;;;;7.61;87.90;101080.34;10238132;28;20466;-74
2021/10/29 04:54:04;;;;;;;28.58;19.25;;;;;;;7.61;87.88;101085.78;10240440;28;20042;-75
2021/10/29 04:59:00;;;;;;;28.25;18.98;;;;;;;7.55;87.83;101092.38;10254633;28;20040;-75
2021/10/29 05:03:58;;;;;;;33.47;21.48;;;;;;;7.55;88.16;101081.50;10233700;28;20103;-74
2021/10/29 05:08:57;;;;;;;30.83;19.90;;;;;;;7.54;88.28;101068.97;10240139;28;20045;-75
2021/10/29 05:13:54;;;;;;;29.92;19.33;;;;;;;7.53;87.83;101086.41;10244213;28;20128;-75
2021/10/29 05:18:51;;;;;;;26.70;19.48;;;;;;;7.47;88.01;101080.25;10245496;28;20056;-75
2021/10/29 05:23:47;;;;;;;29.00;19.23;;;;;;;7.47;88.23;101087.56;10226861;28;20123;-75
2021/10/29 05:28:44;;;;;;;31.90;20.25;;;;;;;7.49;88.26;101088.09;10224246;28;20033;-74
2021/10/29 05:33:42;;;;;;;29.83;21.17;;;;;;;7.48;87.50;101075.59;10233250;28;20072;-75
2021/10/29 05:38:38;;;;;;;27.65;18.55;;;;;;;7.43;87.65;101072.94;10251419;28;20484;-74
2021/10/29 05:43:35;;;;;;;31.27;19.58;;;;;;;7.41;87.61;101086.00;10258420;28;20045;-74
2021/10/29 05:48:32;;;;;;;29.70;17.80;;;;;;;7.35;87.14;101072.44;10253603;28;20660;-74
2021/10/29 05:58:27;;;;;;;32.05;19.73;;;;;;;7.27;87.16;101075.78;10258133;28;20045;-74
2021/10/29 06:03:25;;;;;;;27.55;18.13;;;;;;;7.28;87.91;101069.25;10259061;28;20041;-74
2021/10/29 06:08:22;;;;;;;30.17;19.50;;;;;;;7.26;87.89;101076.88;10242734;28;20091;-74
2021/10/29 06:13:19;;;;;;;32.10;19.17;;;;;;;7.21;88.06;101071.50;10252502;28;20049;-75
2021/10/29 06:18:26;;;;;;;27.13;18.13;;;;;;;7.27;87.25;101069.56;10252717;28;20070;-74
2021/10/29 06:23:29;;;;;;;30.67;19.05;;;;;;;7.25;87.49;101069.03;10241528;28;20044;-74
2021/10/29 06:28:29;;;;;;;32.47;19.30;;;;;;;7.21;87.67;101076.94;10235265;28;20041;-74
2021/10/29 06:33:25;;;;;;;27.95;18.17;;;;;;;7.25;87.96;101077.19;10227758;28;20099;-74
2021/10/29 06:38:22;;;;;;;33.40;19.35;;;;;;;7.24;87.69;101070.94;10223187;28;20045;-75
2021/10/29 07:04:17;;;;;;;32.42;19.13;;;;;;;7.23;87.69;101072.03;10220337;28;20041;-74
2021/10/29 07:40:47;;;;;;;28.65;17.52;;;;;;;7.56;87.59;101083.13;10239011;28;20049;-75
2021/10/29 07:45:43;;;;;;;28.35;17.95;;;;;;;7.64;87.10;101084.41;10233311;28;20037;-75
2021/10/29 07:50:40;;;;;;;29.08;15.43;;;;;;;7.70;87.11;101081.31;10235070;28;20036;-75
2021/10/29 07:55:36;;;;;;;29.17;17.42;;;;;;;7.78;87.23;101080.69;10249571;28;20129;-75
2021/10/29 08:00:37;;;;;;;26.85;15.35;;;;;;;7.82;86.56;101075.50;10250110;28;20049;-75
2021/10/29 08:05:36;;;;;;;24.67;15.70;;;;;;;7.91;87.26;101079.16;10256001;28;20392;-75
2021/10/29 08:10:34;;;;;;;25.73;15.20;;;;;;;7.95;87.02;101079.41;10247448;28;20094;-75
2021/10/29 08:15:35;;;;;;;27.00;15.75;;;;;;;8.07;86.51;101068.91;10246426;28;20057;-75
2021/10/29 08:20:32;;;;;;;27.15;15.93;;;;;;;8.16;86.23;101074.50;10235155;28;20458;-75
2021/10/29 08:25:29;;;;;;;24.83;15.23;;;;;;;8.25;85.99;101080.13;10244831;28;20041;-75
2021/10/29 08:30:26;;;;;;;28.38;16.35;;;;;;;8.32;85.92;101077.84;10246130;28;20111;-75
2021/10/29 08:35:22;;;;;;;26.33;16.02;;;;;;;8.52;86.00;101080.31;10254168;28;20041;-75
2021/10/29 08:40:25;;;;;;;27.15;15.35;;;;;;;8.69;85.39;101065.34;10245933;28;20115;-75
2021/10/29 08:45:21;;;;;;;28.50;14.77;;;;;;;8.81;84.72;101068.41;10245509;28;20400;-75
2021/10/29 08:50:18;;;;;;;25.58;15.40;;;;;;;8.95;84.37;101066.53;10244816;28;20049;-75
2021/10/29 08:55:20;;;;;;;27.63;13.95;;;;;;;9.00;84.52;101066.47;10237435;28;20151;-75
2021/10/29 09:00:22;;;;;;;22.65;13.25;;;;;;;9.05;83.37;101062.84;10253305;28;20080;-75
2021/10/29 09:05:27;;;;;;;23.35;13.55;;;;;;;9.12;83.80;101057.00;10256812;28;20112;-75
2021/10/29 09:31:37;;;;;;;23.33;13.63;;;;;;;9.68;83.17;101026.75;10245310;28;20057;-75
2021/10/29 09:36:37;;;;;;;19.88;12.25;;;;;;;9.83;82.45;101033.00;10246177;28;20442;-75
2021/10/29 09:41:37;;;;;;;23.00;13.00;;;;;;;9.97;81.74;101028.31;10243489;28;20073;-75
2021/10/29 09:46:57;;;;;;;24.40;13.45;;;;;;;10.10;81.87;101021.22;10244514;28;20049;-75
2021/10/29 09:57:13;;;;;;;20.60;12.93;;;;;;;10.37;81.84;101025.03;10204885;28;20088;-75
2021/10/29 10:02:18;;;;;;;23.75;12.35;;;;;;;10.50;81.59;101022.25;10260021;28;20048;-75
2021/10/29 10:07:18;;;;;;;20.52;11.93;;;;;;;10.65;80.83;101021.06;10256946;28;20049;-75
2021/10/29 10:12:18;;;;;;;21.30;13.70;;;;;;;10.80;81.11;101006.22;10247934;28;20404;-75
2021/10/29 10:17:17;;;;;;;18.40;11.88;;;;;;;10.88;80.49;101002.69;10254133;28;20045;-75
2021/10/29 10:22:16;;;;;;;18.77;11.73;;;;;;;11.00;81.07;100993.13;10252326;28;20106;-75
2021/10/29 10:27:31;;;;;;;19.98;12.07;;;;;;;11.16;81.33;100988.84;10253859;28;20044;-75
2021/10/29 10:43:36;;;;;;;15.60;9.82;;;;;;;11.63;78.98;100966.47;10242264;28;20107;-75
2021/10/29 10:48:46;;;;;;;15.95;9.95;;;;;;;11.76;78.88;100966.31;10231509;28;20041;-75
2021/10/29 10:53:50;;;;;;;20.85;9.55;;;;;;;11.87;78.73;100966.88;10258379;28;20045;-75
2021/10/29 10:59:31;;;;;;;19.42;9.38;;;;;;;12.08;77.53;100966.25;10240049;28;20048;-75
2021/10/29 11:04:51;;;;;;;18.70;8.70;;;;;;;12.26;77.63;100954.16;10254137;28;20110;-75
2021/10/29 11:10:07;;;;;;;16.33;9.65;;;;;;;12.45;76.51;100947.53;10243594;28;20041;-75
2021/10/29 11:15:10;;;;;;;15.30;8.65;;;;;;;12.62;75.33;100937.34;10256593;28;20045;-75
2021/10/29 11:20:07;;;;;;;20.53;8.87;;;;;;;12.76;74.82;100926.13;10245001;28;20092;-74
2021/10/29 11:25:04;;;;;;;15.98;8.50;;;;;;;12.82;74.03;100913.06;10245481;28;20098;-75
2021/10/29 11:30:05;;;;;;;11.88;7.20;;;;;;;12.99;74.56;100917.69;10251432;28;20088;-75
2021/10/29 11:35:02;;;;;;;14.70;7.63;;;;;;;13.16;74.49;100912.13;10252929;28;20672;-74
2021/10/29 11:40:00;;;;;;;15.13;7.57;;;;;;;13.37;74.88;100905.91;10243419;28;20049;-75
2021/10/29 11:45:03;;;;;;;11.95;6.82;;;;;;;13.51;73.32;100906.47;10246689;28;20063;-75
2021/10/29 11:50:12;;;;;;;10.05;6.82;;;;;;;13.67;73.72;100904.75;10233528;28;20069;-74
2021/10/29 11:55:51;;;;;;;15.40;7.90;;;;;;;13.90;71.90;100896.16;10248838;28;20569;-75
2021/10/29 12:01:10;;;;;;;12.65;7.28;;;;;;;14.11;72.40;100885.16;10238303;28;20099;-75
2021/10/29 12:06:16;;;;;;;17.60;7.38;;;;;;;14.37;70.90;100882.16;10197990;28;1360646;-75
2021/10/29 12:11:18;;;;;;;10.27;6.82;;;;;;;14.67;70.44;100880.06;10247015;28;20057;-75
2021/10/29 12:16:20;;;;;;;12.68;6.28;;;;;;;15.07;70.44;100878.59;10250280;28;20537;-75
2021/10/29 12:21:21;;;;;;;9.90;5.82;;;;;;;15.29;68.64;100867.13;10255829;28;20045;-75
2021/10/29 12:26:23;;;;;;;8.60;5.03;;;;;;;15.31;68.26;100858.50;10241006;28;20037;-75
2021/10/29 12:31:51;;;;;;;9.23;5.00;;;;;;;15.24;67.89;100853.56;10258616;28;20077;-75
2021/10/29 12:53:25;;;;;;;14.18;6.00;;;;;;;15.03;66.85;100852.91;10205800;28;20046;-75
2021/10/29 13:03:45;;;;;;;9.77;4.55;;;;;;;14.82;67.78;100825.50;10191563;28;20045;-75
2021/10/29 13:08:42;;;;;;;18.50;4.78;;;;;;;14.89;67.58;100834.78;10198552;28;20459;-75
2021/10/29 13:13:45;;;;;;;6.72;3.70;;;;;;;14.97;67.08;100821.22;10198792;28;20108;-75
2021/10/29 13:55:36;;;;;;;7.43;3.20;;;;;;;16.36;61.84;100785.84;10211229;28;20076;-74
2021/10/29 14:31:54;;;;;;;8.57;3.63;;;;;;;15.12;65.18;100762.72;10208548;28;20121;-74
2021/10/29 14:36:57;;;;;;;8.13;3.47;;;;;;;14.98;65.46;100759.53;10217257;28;20670;-74
2021/10/29 14:42:19;;;;;;;6.20;3.50;;;;;;;14.80;67.25;100750.72;10215363;28;20038;-74
2021/10/29 14:47:29;;;;;;;7.75;3.45;;;;;;;14.64;66.56;100748.66;10216241;28;20427;-74
2021/10/29 15:03:28;;;;;;;5.65;3.10;;;;;;;14.26;67.80;100726.94;10188889;28;20050;-74
2021/10/29 15:45:43;;;;;;;7.07;2.83;;;;;;;13.56;70.43;100678.25;10183782;28;20105;-74
2021/10/29 15:50:16;;;;;;;7.07;2.60;;;;;;;13.47;71.18;100674.81;10163655;28;20042;-74
2021/10/29 15:55:16;;;;;;;6.88;2.58;;;;;;;13.46;70.27;100697.94;10216101;28;20141;-74
2021/10/29 16:00:34;;;;;;;7.00;2.78;;;;;;;13.40;70.63;100719.28;10220920;28;20046;-74
2021/10/29 16:21:16;;;;;;;10.30;3.92;;;;;;;13.12;72.85;100718.22;10213390;28;20481;-75
2021/10/29 16:26:15;;;;;;;10.73;5.10;;;;;;;13.10;72.77;100718.53;10209824;28;20057;-74
2021/10/29 16:31:14;;;;;;;8.63;4.28;;;;;;;13.07;73.24;100715.69;10208775;28;20146;-74
2021/10/29 16:36:10;;;;;;;9.38;4.88;;;;;;;13.07;72.91;100727.44;10216070;28;20208;-73
2021/10/29 16:41:07;;;;;;;10.93;5.05;;;;;;;13.01;73.18;100739.75;10200883;28;20054;-73
2021/10/29 16:46:04;;;;;;;8.35;4.90;;;;;;;12.96;74.02;100743.50;10179621;28;20523;-74
2021/10/29 16:51:00;;;;;;;10.32;5.50;;;;;;;12.93;73.74;100726.91;10181981;28;20058;-74
2021/10/29 16:55:57;;;;;;;11.50;5.20;;;;;;;12.90;73.96;100727.56;10176077;28;20081;-74
2021/10/29 17:00:54;;;;;;;13.65;6.00;;;;;;;12.84;74.14;100738.72;10180477;28;20140;-74
2021/10/29 17:05:51;;;;;;;11.80;5.40;;;;;;;12.77;75.35;100743.94;10222290;28;20050;-73
2021/10/29 17:10:48;;;;;;;11.77;6.20;;;;;;;12.71;75.74;100731.53;10212534;28;20088;-73
2021/10/29 17:15:45;;;;;;;10.70;6.13;;;;;;;12.69;75.57;100754.97;10204206;28;20457;-73
2021/10/29 17:20:41;;;;;;;12.90;6.95;;;;;;;12.60;75.88;100757.75;10207864;28;20042;-74
2021/10/29 17:25:40;;;;;;;14.77;7.50;;;;;;;12.57;75.91;100758.41;10200969;28;20037;-74
2021/10/29 17:30:40;;;;;;;14.20;7.95;;;;;;;12.53;75.88;100757.47;10222328;28;20053;-74
2021/10/29 17:35:41;;;;;;;13.35;8.35;;;;;;;12.51;76.05;100743.25;10209304;28;20066;-73
2021/10/29 17:40:42;;;;;;;14.70;7.70;;;;;;;12.48;76.22;100732.97;10207439;28;20048;-74
2021/10/29 17:45:44;;;;;;;17.40;8.57;;;;;;;12.41;76.99;100739.75;10220027;28;20123;-74
2021/10/29 17:50:46;;;;;;;14.23;8.18;;;;;;;12.37;76.71;100741.56;10202338;28;20042;-73
2021/10/29 17:55:47;;;;;;;12.43;7.43;;;;;;;12.33;76.40;100737.88;10216395;28;20053;-73
2021/10/29 18:00:47;;;;;;;13.13;7.75;;;;;;;12.29;76.62;100731.44;10222116;28;20408;-75
2021/10/29 18:05:47;;;;;;;11.48;7.22;;;;;;;12.28;76.80;100734.53;10207007;28;20050;-74
2021/10/29 18:10:47;;;;;;;13.90;7.50;;;;;;;12.27;77.07;100733.69;10201854;28;20077;-74
2021/10/29 18:15:49;;;;;;;12.63;7.22;;;;;;;12.22;76.78;100731.16;10177203;28;20041;-73
2021/10/29 18:20:53;;;;;;;14.95;8.07;;;;;;;12.19;76.98;100737.28;10183986;28;20052;-72
2021/10/29 18:25:50;;;;;;;14.85;7.10;;;;;;;12.16;77.06;100735.19;10207965;28;20041;-73
2021/10/29 18:30:46;;;;;;;11.77;6.90;;;;;;;12.13;77.05;100744.06;10216208;28;20119;-73
2021/10/29 18:35:43;;;;;;;15.13;7.43;;;;;;;12.11;77.01;100736.16;10209369;28;20057;-73
2021/10/29 18:40:41;;;;;;;13.73;7.55;;;;;;;12.09;77.21;100732.16;10214057;28;20076;-73
2021/10/29 18:45:37;;;;;;;13.52;8.07;;;;;;;12.06;77.30;100721.84;10211788;28;20053;-72
2021/10/29 18:50:34;;;;;;;19.20;8.68;;;;;;;12.05;77.09;100714.78;10179186;28;20037;-73
2021/10/29 18:55:30;;;;;;;12.68;7.72;;;;;;;11.99;77.19;100705.91;10185395;28;20081;-74
2021/10/29 19:00:27;;;;;;;12.55;7.50;;;;;;;11.96;77.19;100707.38;10185453;28;20084;-72
2021/10/29 19:05:23;;;;;;;13.95;7.43;;;;;;;11.94;77.08;100720.59;10223180;28;20495;-73
2021/10/29 19:10:20;;;;;;;20.75;7.80;;;;;;;11.92;76.59;100727.53;10209008;28;20215;-73
2021/10/29 19:15:19;;;;;;;17.92;9.05;;;;;;;11.91;76.58;100737.69;10209848;28;20080;-73
2021/10/29 19:20:16;;;;;;;14.93;9.25;;;;;;;11.87;76.72;100730.41;10222774;28;20069;-73
2021/10/29 19:25:14;;;;;;;18.83;9.60;;;;;;;11.84;76.47;100726.41;10213559;28;20058;-73
2021/10/29 19:30:10;;;;;;;16.58;9.88;;;;;;;11.81;76.37;100727.03;10173994;28;20053;-73
2021/10/29 19:35:09;;;;;;;16.98;9.63;;;;;;;11.78;76.04;100739.44;10188823;28;20088;-73
2021/10/29 19:45:25;;;;;;;22.73;9.98;;;;;;;11.68;76.60;100749.97;10211565;28;20132;-73
2021/10/29 19:50:22;;;;;;;17.40;8.65;;;;;;;11.63;76.68;100750.09;10209417;28;20037;-74
2021/10/29 19:55:24;;;;;;;21.45;9.38;;;;;;;11.58;76.87;100751.91;10201774;28;20855;-73
2021/10/29 20:00:21;;;;;;;18.73;10.87;;;;;;;11.57;76.75;100739.31;10204895;28;20623;-74
2021/10/29 20:05:19;;;;;;;15.75;9.13;;;;;;;11.52;76.87;100735.97;10217241;28;20049;-74
2021/10/29 20:10:15;;;;;;;15.38;10.40;;;;;;;11.46;76.98;100732.56;10208056;28;20488;-74
2021/10/29 20:15:12;;;;;;;15.15;9.77;;;;;;;11.40;77.50;100736.63;10180867;28;20049;-73
2021/10/29 20:20:10;;;;;;;15.57;9.52;;;;;;;11.37;77.79;100745.44;10179823;28;20183;-73
2021/10/29 20:25:07;;;;;;;15.40;8.90;;;;;;;11.33;77.52;100739.03;10179450;28;20088;-74
2021/10/29 20:30:04;;;;;;;22.60;9.95;;;;;;;11.23;78.82;100755.75;10177678;28;20046;-73
2021/10/29 20:35:01;;;;;;;16.40;9.35;;;;;;;11.12;79.17;100749.81;10199934;28;20075;-73
2021/10/29 20:39:58;;;;;;;15.25;9.40;;;;;;;11.03;79.30;100752.53;10213133;28;20558;-73
2021/10/29 20:44:54;;;;;;;18.45;9.73;;;;;;;10.96;79.90;100757.66;10204765;28;20141;-73
2021/10/29 20:49:51;;;;;;;15.55;9.07;;;;;;;10.89;79.74;100762.81;10205180;28;20077;-73
2021/10/29 20:54:49;;;;;;;17.45;9.73;;;;;;;10.79;80.20;100754.88;10198403;28;20049;-74
2021/10/29 20:59:45;;;;;;;18.75;9.98;;;;;;;10.76;80.67;100763.72;10202605;28;20581;-73
2021/10/29 21:04:42;;;;;;;15.10;9.48;;;;;;;10.69;80.52;100765.00;10204538;28;20419;-73
2021/10/29 21:09:38;;;;;;;15.93;9.18;;;;;;;10.61;80.84;100757.59;10185399;28;20038;-73
2021/10/29 21:14:34;;;;;;;14.68;10.00;;;;;;;10.55;80.96;100758.84;10175720;28;20050;-73
2021/10/29 21:19:31;;;;;;;15.98;10.20;;;;;;;10.51;81.55;100757.84;10194624;28;20516;-73
2021/10/29 21:24:28;;;;;;;19.48;10.23;;;;;;;10.46;81.23;100763.47;10184390;28;20108;-73
2021/10/29 21:29:25;;;;;;;16.52;8.85;;;;;;;10.43;82.26;100753.19;10190013;28;20069;-73
2021/10/29 21:34:26;;;;;;;16.10;9.57;;;;;;;10.38;82.17;100758.78;10194473;28;20045;-74
2021/10/29 21:39:25;;;;;;;15.50;9.23;;;;;;;10.36;81.73;100756.38;10182014;28;20077;-73
2021/10/29 21:44:22;;;;;;;19.25;9.38;;;;;;;10.30;82.50;100758.44;10207559;28;20081;-74
2021/10/29 21:49:19;;;;;;;15.90;9.35;;;;;;;10.28;82.66;100755.22;10210424;28;20077;-73
2021/10/29 21:54:15;;;;;;;13.88;9.13;;;;;;;10.27;82.67;100764.50;10202298;28;20557;-73
2021/10/29 21:59:12;;;;;;;15.18;9.32;;;;;;;10.24;82.74;100765.13;10216314;28;20420;-73
2021/10/29 22:04:08;;;;;;;17.15;9.80;;;;;;;10.20;82.64;100764.13;10213078;28;20119;-73
2021/10/29 22:09:06;;;;;;;14.05;9.07;;;;;;;10.16;82.83;100757.69;10220107;28;20065;-73
2021/10/29 22:14:03;;;;;;;14.52;8.60;;;;;;;10.12;83.29;100762.19;10220461;28;20071;-74
2021/10/29 22:18:59;;;;;;;17.98;8.88;;;;;;;10.10;83.09;100761.69;10217364;28;20072;-74
2021/10/29 22:23:56;;;;;;;15.25;8.23;;;;;;;10.05;83.01;100767.28;10208753;28;20045;-73
2021/10/29 22:28:53;;;;;;;18.02;9.90;;;;;;;10.04;83.03;100768.38;10218890;28;20096;-74
2021/10/29 22:33:50;;;;;;;15.52;10.68;;;;;;;10.03;83.99;100766.78;10217844;28;20107;-73
2021/10/29 22:38:46;;;;;;;15.25;9.45;;;;;;;10.02;84.04;100762.44;10222094;28;20499;-73
2021/10/29 22:43:43;;;;;;;15.10;9.52;;;;;;;9.98;84.41;100761.44;10213951;28;20573;-74
2021/10/29 22:48:40;;;;;;;16.88;9.55;;;;;;;9.93;83.87;100758.84;10217918;28;20045;-73
2021/10/29 22:53:38;;;;;;;14.65;9.30;;;;;;;9.90;84.64;100755.59;10222126;28;20045;-74
2021/10/29 22:58:35;;;;;;;14.52;8.52;;;;;;;9.90;84.52;100754.81;10208518;28;20103;-73
2021/10/29 23:03:31;;;;;;;14.95;8.88;;;;;;;9.89;84.53;100758.66;10216379;28;20866;-74
2021/10/29 23:08:28;;;;;;;15.15;9.13;;;;;;;9.86;84.50;100749.19;10213954;28;20077;-73
2021/10/29 23:13:24;;;;;;;15.50;8.52;;;;;;;9.90;84.25;100750.16;10210831;28;20061;-73
2021/10/29 23:18:21;;;;;;;17.67;8.52;;;;;;;9.94;85.14;100755.00;10215236;28;20065;-73
2021/10/29 23:23:18;;;;;;;16.80;8.55;;;;;;;9.85;85.41;100750.28;10215872;28;20073;-73
2021/10/29 23:28:14;;;;;;;17.10;8.55;;;;;;;9.93;84.61;100758.84;10204066;28;20089;-73
2021/10/29 23:33:11;;;;;;;11.18;7.90;;;;;;;9.89;84.38;100748.53;10232912;28;20095;-74
2021/10/29 23:38:08;;;;;;;14.98;8.52;;;;;;;9.87;84.78;100737.13;10232820;28;20049;-74
2021/10/29 23:43:07;;;;;;;15.52;9.35;;;;;;;9.84;85.28;100734.19;10215003;28;20096;-73
2021/10/29 23:48:04;;;;;;;12.40;8.65;;;;;;;9.85;85.40;100744.03;10210880;28;20041;-73
2021/10/29 23:53:01;;;;;;;17.15;9.35;;;;;;;9.80;85.54;100749.63;10198947;28;20085;-73
2021/10/29 23:57:57;;;;;;;13.20;8.85;;;;;;;9.78;85.33;100752.66;10196213;28;20080;-73
